<?xml version="1.0" encoding="UTF-8" standalone="no" ?>
<gpx xmlns="http://www.topografix.com/GPX/1/1" xmlns:xsi="http://www.w3.org/2001/XMLSchema-instance" xsi:schemaLocation="http://www.topografix.com/GPX/1/1 http://www.topografix.com/GPX/1/1/gpx.xsd" version="1.1" creator="VisuGPX - https://www.visugpx.com">
  <metadata>
    <name>Rambouillet - Dourdan</name>
    <desc><![CDATA[Le GR1 de Rambouillet à Dourdan.]]></desc>
  </metadata>
  <trk>
    <name><![CDATA[20190304162329-3cliv]]></name>
    <trkseg>
      <trkpt lat="48.6427" lon="1.83061">
        <ele>159</ele>
        <time>2015-05-24T00:09:58Z</time>
      </trkpt>
      <trkpt lat="48.64263" lon="1.8307">
        <ele>159</ele>
        <time>2015-05-24T00:09:38Z</time>
      </trkpt>
      <trkpt lat="48.64253" lon="1.83071">
        <ele>159</ele>
        <time>2015-05-24T00:09:18Z</time>
      </trkpt>
      <trkpt lat="48.64213" lon="1.83111">
        <ele>159</ele>
        <time>2015-05-24T00:08:58Z</time>
      </trkpt>
      <trkpt lat="48.6419" lon="1.83149">
        <ele>160</ele>
        <time>2015-05-24T00:08:38Z</time>
      </trkpt>
      <trkpt lat="48.64053" lon="1.83383">
        <ele>165</ele>
        <time>2015-05-24T00:08:18Z</time>
      </trkpt>
      <trkpt lat="48.63898" lon="1.83603">
        <ele>167</ele>
        <time>2015-05-24T00:07:58Z</time>
      </trkpt>
      <trkpt lat="48.63852" lon="1.83695">
        <ele>166</ele>
        <time>2015-05-24T00:07:38Z</time>
      </trkpt>
      <trkpt lat="48.63849" lon="1.83708">
        <ele>166</ele>
        <time>2015-05-24T00:07:18Z</time>
      </trkpt>
      <trkpt lat="48.63842" lon="1.83715">
        <ele>166</ele>
        <time>2015-05-24T00:06:58Z</time>
      </trkpt>
      <trkpt lat="48.6384" lon="1.83732">
        <ele>166</ele>
        <time>2015-05-24T00:06:38Z</time>
      </trkpt>
      <trkpt lat="48.63834" lon="1.83735">
        <ele>166</ele>
        <time>2015-05-24T00:06:18Z</time>
      </trkpt>
      <trkpt lat="48.63779" lon="1.83842">
        <ele>164</ele>
        <time>2015-05-24T00:05:58Z</time>
      </trkpt>
      <trkpt lat="48.63752" lon="1.83844">
        <ele>164</ele>
        <time>2015-05-24T00:05:38Z</time>
      </trkpt>
      <trkpt lat="48.63723" lon="1.83837">
        <ele>164</ele>
        <time>2015-05-24T00:05:18Z</time>
      </trkpt>
      <trkpt lat="48.63704" lon="1.8382">
        <ele>165</ele>
        <time>2015-05-24T00:04:58Z</time>
      </trkpt>
      <trkpt lat="48.63624" lon="1.83697">
        <ele>166</ele>
        <time>2015-05-24T00:04:38Z</time>
      </trkpt>
      <trkpt lat="48.63538" lon="1.83631">
        <ele>167</ele>
        <time>2015-05-24T00:04:18Z</time>
      </trkpt>
      <trkpt lat="48.63542" lon="1.83687">
        <ele>168</ele>
        <time>2015-05-24T00:03:58Z</time>
      </trkpt>
      <trkpt lat="48.63533" lon="1.8376">
        <ele>169</ele>
        <time>2015-05-24T00:03:38Z</time>
      </trkpt>
      <trkpt lat="48.63513" lon="1.8378">
        <ele>169</ele>
        <time>2015-05-24T00:03:18Z</time>
      </trkpt>
      <trkpt lat="48.63494" lon="1.83782">
        <ele>172</ele>
        <time>2015-05-24T00:02:58Z</time>
      </trkpt>
      <trkpt lat="48.63488" lon="1.83795">
        <ele>173</ele>
        <time>2015-05-24T00:02:38Z</time>
      </trkpt>
      <trkpt lat="48.63459" lon="1.83899">
        <ele>172</ele>
        <time>2015-05-24T00:02:18Z</time>
      </trkpt>
      <trkpt lat="48.63445" lon="1.83896">
        <ele>173</ele>
        <time>2015-05-24T00:01:58Z</time>
      </trkpt>
      <trkpt lat="48.63408" lon="1.83917">
        <ele>175</ele>
        <time>2015-05-24T00:01:38Z</time>
      </trkpt>
      <trkpt lat="48.63368" lon="1.83979">
        <ele>174</ele>
        <time>2015-05-24T00:01:18Z</time>
      </trkpt>
      <trkpt lat="48.63336" lon="1.83992">
        <ele>174</ele>
        <time>2015-05-24T00:00:58Z</time>
      </trkpt>
      <trkpt lat="48.63285" lon="1.84002">
        <ele>172</ele>
        <time>2015-05-24T00:00:38Z</time>
      </trkpt>
      <trkpt lat="48.63207" lon="1.84049">
        <ele>170</ele>
        <time>2015-05-24T00:00:18Z</time>
      </trkpt>
      <trkpt lat="48.63164" lon="1.84067">
        <ele>168</ele>
        <time>2015-05-23T23:59:58Z</time>
      </trkpt>
      <trkpt lat="48.63141" lon="1.84095">
        <ele>167</ele>
        <time>2015-05-23T23:59:38Z</time>
      </trkpt>
      <trkpt lat="48.63077" lon="1.84142">
        <ele>163</ele>
        <time>2015-05-23T23:59:18Z</time>
      </trkpt>
      <trkpt lat="48.63051" lon="1.84158">
        <ele>163</ele>
        <time>2015-05-23T23:58:58Z</time>
      </trkpt>
      <trkpt lat="48.63009" lon="1.84203">
        <ele>162</ele>
        <time>2015-05-23T23:58:38Z</time>
      </trkpt>
      <trkpt lat="48.6304" lon="1.84204">
        <ele>163</ele>
        <time>2015-05-23T23:58:18Z</time>
      </trkpt>
      <trkpt lat="48.63064" lon="1.84218">
        <ele>163</ele>
        <time>2015-05-23T23:57:58Z</time>
      </trkpt>
      <trkpt lat="48.63075" lon="1.84232">
        <ele>164</ele>
        <time>2015-05-23T23:57:38Z</time>
      </trkpt>
      <trkpt lat="48.63077" lon="1.8425">
        <ele>164</ele>
        <time>2015-05-23T23:57:18Z</time>
      </trkpt>
      <trkpt lat="48.63074" lon="1.84267">
        <ele>164</ele>
        <time>2015-05-23T23:56:58Z</time>
      </trkpt>
      <trkpt lat="48.63056" lon="1.84286">
        <ele>165</ele>
        <time>2015-05-23T23:56:38Z</time>
      </trkpt>
      <trkpt lat="48.6303" lon="1.84291">
        <ele>165</ele>
        <time>2015-05-23T23:56:18Z</time>
      </trkpt>
      <trkpt lat="48.62956" lon="1.84284">
        <ele>163</ele>
        <time>2015-05-23T23:55:58Z</time>
      </trkpt>
      <trkpt lat="48.62884" lon="1.84379">
        <ele>161</ele>
        <time>2015-05-23T23:55:38Z</time>
      </trkpt>
      <trkpt lat="48.62869" lon="1.84407">
        <ele>161</ele>
        <time>2015-05-23T23:55:18Z</time>
      </trkpt>
      <trkpt lat="48.62864" lon="1.84445">
        <ele>161</ele>
        <time>2015-05-23T23:54:58Z</time>
      </trkpt>
      <trkpt lat="48.62868" lon="1.84529">
        <ele>163</ele>
        <time>2015-05-23T23:54:38Z</time>
      </trkpt>
      <trkpt lat="48.62874" lon="1.84573">
        <ele>163</ele>
        <time>2015-05-23T23:54:18Z</time>
      </trkpt>
      <trkpt lat="48.62948" lon="1.84691">
        <ele>164</ele>
        <time>2015-05-23T23:53:58Z</time>
      </trkpt>
      <trkpt lat="48.62976" lon="1.84758">
        <ele>163</ele>
        <time>2015-05-23T23:53:38Z</time>
      </trkpt>
      <trkpt lat="48.63004" lon="1.84841">
        <ele>162</ele>
        <time>2015-05-23T23:53:18Z</time>
      </trkpt>
      <trkpt lat="48.6305" lon="1.84964">
        <ele>164</ele>
        <time>2015-05-23T23:52:58Z</time>
      </trkpt>
      <trkpt lat="48.63061" lon="1.85004">
        <ele>164</ele>
        <time>2015-05-23T23:52:38Z</time>
      </trkpt>
      <trkpt lat="48.63087" lon="1.85033">
        <ele>163</ele>
        <time>2015-05-23T23:52:18Z</time>
      </trkpt>
      <trkpt lat="48.63121" lon="1.85092">
        <ele>163</ele>
        <time>2015-05-23T23:51:58Z</time>
      </trkpt>
      <trkpt lat="48.63141" lon="1.85139">
        <ele>163</ele>
        <time>2015-05-23T23:51:38Z</time>
      </trkpt>
      <trkpt lat="48.63148" lon="1.85196">
        <ele>164</ele>
        <time>2015-05-23T23:51:18Z</time>
      </trkpt>
      <trkpt lat="48.63144" lon="1.85235">
        <ele>163</ele>
        <time>2015-05-23T23:50:58Z</time>
      </trkpt>
      <trkpt lat="48.63151" lon="1.85253">
        <ele>164</ele>
        <time>2015-05-23T23:50:38Z</time>
      </trkpt>
      <trkpt lat="48.63178" lon="1.85288">
        <ele>164</ele>
        <time>2015-05-23T23:50:18Z</time>
      </trkpt>
      <trkpt lat="48.63197" lon="1.85298">
        <ele>164</ele>
        <time>2015-05-23T23:49:58Z</time>
      </trkpt>
      <trkpt lat="48.63199" lon="1.85329">
        <ele>164</ele>
        <time>2015-05-23T23:49:38Z</time>
      </trkpt>
      <trkpt lat="48.63165" lon="1.85384">
        <ele>166</ele>
        <time>2015-05-23T23:49:18Z</time>
      </trkpt>
      <trkpt lat="48.63196" lon="1.85459">
        <ele>163</ele>
        <time>2015-05-23T23:48:58Z</time>
      </trkpt>
      <trkpt lat="48.63242" lon="1.85541">
        <ele>163</ele>
        <time>2015-05-23T23:48:38Z</time>
      </trkpt>
      <trkpt lat="48.63265" lon="1.85566">
        <ele>163</ele>
        <time>2015-05-23T23:48:18Z</time>
      </trkpt>
      <trkpt lat="48.63273" lon="1.85586">
        <ele>163</ele>
        <time>2015-05-23T23:47:58Z</time>
      </trkpt>
      <trkpt lat="48.63307" lon="1.85618">
        <ele>164</ele>
        <time>2015-05-23T23:47:38Z</time>
      </trkpt>
      <trkpt lat="48.63308" lon="1.85647">
        <ele>164</ele>
        <time>2015-05-23T23:47:18Z</time>
      </trkpt>
      <trkpt lat="48.63331" lon="1.85678">
        <ele>164</ele>
        <time>2015-05-23T23:46:58Z</time>
      </trkpt>
      <trkpt lat="48.63306" lon="1.85733">
        <ele>165</ele>
        <time>2015-05-23T23:46:38Z</time>
      </trkpt>
      <trkpt lat="48.63342" lon="1.85777">
        <ele>166</ele>
        <time>2015-05-23T23:46:18Z</time>
      </trkpt>
      <trkpt lat="48.63354" lon="1.85817">
        <ele>167</ele>
        <time>2015-05-23T23:45:58Z</time>
      </trkpt>
      <trkpt lat="48.63387" lon="1.85821">
        <ele>167</ele>
        <time>2015-05-23T23:45:38Z</time>
      </trkpt>
      <trkpt lat="48.63425" lon="1.85864">
        <ele>168</ele>
        <time>2015-05-23T23:45:18Z</time>
      </trkpt>
      <trkpt lat="48.63459" lon="1.85867">
        <ele>168</ele>
        <time>2015-05-23T23:44:58Z</time>
      </trkpt>
      <trkpt lat="48.63474" lon="1.85882">
        <ele>168</ele>
        <time>2015-05-23T23:44:38Z</time>
      </trkpt>
      <trkpt lat="48.63487" lon="1.85939">
        <ele>170</ele>
        <time>2015-05-23T23:44:18Z</time>
      </trkpt>
      <trkpt lat="48.63648" lon="1.86117">
        <ele>167</ele>
        <time>2015-05-23T23:43:58Z</time>
      </trkpt>
      <trkpt lat="48.63989" lon="1.86495">
        <ele>174</ele>
        <time>2015-05-23T23:43:38Z</time>
      </trkpt>
      <trkpt lat="48.6432" lon="1.86869">
        <ele>178</ele>
        <time>2015-05-23T23:43:18Z</time>
      </trkpt>
      <trkpt lat="48.6466" lon="1.8725">
        <ele>176</ele>
        <time>2015-05-23T23:42:58Z</time>
      </trkpt>
      <trkpt lat="48.64952" lon="1.87585">
        <ele>174</ele>
        <time>2015-05-23T23:42:38Z</time>
      </trkpt>
      <trkpt lat="48.64956" lon="1.87603">
        <ele>174</ele>
        <time>2015-05-23T23:42:18Z</time>
      </trkpt>
      <trkpt lat="48.64931" lon="1.87747">
        <ele>175</ele>
        <time>2015-05-23T23:41:58Z</time>
      </trkpt>
      <trkpt lat="48.64934" lon="1.87768">
        <ele>175</ele>
        <time>2015-05-23T23:41:38Z</time>
      </trkpt>
      <trkpt lat="48.65064" lon="1.87866">
        <ele>170</ele>
        <time>2015-05-23T23:41:18Z</time>
      </trkpt>
      <trkpt lat="48.65101" lon="1.87882">
        <ele>169</ele>
        <time>2015-05-23T23:40:58Z</time>
      </trkpt>
      <trkpt lat="48.65263" lon="1.87932">
        <ele>174</ele>
        <time>2015-05-23T23:40:38Z</time>
      </trkpt>
      <trkpt lat="48.65326" lon="1.88001">
        <ele>176</ele>
        <time>2015-05-23T23:40:18Z</time>
      </trkpt>
      <trkpt lat="48.65404" lon="1.88082">
        <ele>176</ele>
        <time>2015-05-23T23:39:58Z</time>
      </trkpt>
      <trkpt lat="48.65423" lon="1.88112">
        <ele>175</ele>
        <time>2015-05-23T23:39:38Z</time>
      </trkpt>
      <trkpt lat="48.65423" lon="1.88449">
        <ele>169</ele>
        <time>2015-05-23T23:39:18Z</time>
      </trkpt>
      <trkpt lat="48.65434" lon="1.88464">
        <ele>169</ele>
        <time>2015-05-23T23:38:58Z</time>
      </trkpt>
      <trkpt lat="48.65573" lon="1.88526">
        <ele>173</ele>
        <time>2015-05-23T23:38:38Z</time>
      </trkpt>
      <trkpt lat="48.65693" lon="1.88532">
        <ele>172</ele>
        <time>2015-05-23T23:38:18Z</time>
      </trkpt>
      <trkpt lat="48.65801" lon="1.88503">
        <ele>172</ele>
        <time>2015-05-23T23:37:58Z</time>
      </trkpt>
      <trkpt lat="48.65873" lon="1.8846">
        <ele>172</ele>
        <time>2015-05-23T23:37:38Z</time>
      </trkpt>
      <trkpt lat="48.66176" lon="1.88735">
        <ele>176</ele>
        <time>2015-05-23T23:37:18Z</time>
      </trkpt>
      <trkpt lat="48.66169" lon="1.89329">
        <ele>179</ele>
        <time>2015-05-23T23:36:58Z</time>
      </trkpt>
      <trkpt lat="48.66178" lon="1.89347">
        <ele>176</ele>
        <time>2015-05-23T23:36:38Z</time>
      </trkpt>
      <trkpt lat="48.66179" lon="1.8937">
        <ele>174</ele>
        <time>2015-05-23T23:36:18Z</time>
      </trkpt>
      <trkpt lat="48.65964" lon="1.89541">
        <ele>180</ele>
        <time>2015-05-23T23:35:58Z</time>
      </trkpt>
      <trkpt lat="48.65911" lon="1.89647">
        <ele>178</ele>
        <time>2015-05-23T23:35:38Z</time>
      </trkpt>
      <trkpt lat="48.65634" lon="1.90274">
        <ele>180</ele>
        <time>2015-05-23T23:35:18Z</time>
      </trkpt>
      <trkpt lat="48.65289" lon="1.91054">
        <ele>178</ele>
        <time>2015-05-23T23:34:58Z</time>
      </trkpt>
      <trkpt lat="48.64915" lon="1.90639">
        <ele>173</ele>
        <time>2015-05-23T23:34:38Z</time>
      </trkpt>
      <trkpt lat="48.64726" lon="1.91042">
        <ele>174</ele>
        <time>2015-05-23T23:34:18Z</time>
      </trkpt>
      <trkpt lat="48.64651" lon="1.90953">
        <ele>172</ele>
        <time>2015-05-23T23:33:58Z</time>
      </trkpt>
      <trkpt lat="48.64642" lon="1.90932">
        <ele>172</ele>
        <time>2015-05-23T23:33:38Z</time>
      </trkpt>
      <trkpt lat="48.64625" lon="1.9092">
        <ele>172</ele>
        <time>2015-05-23T23:33:18Z</time>
      </trkpt>
      <trkpt lat="48.64582" lon="1.90871">
        <ele>172</ele>
        <time>2015-05-23T23:32:58Z</time>
      </trkpt>
      <trkpt lat="48.64565" lon="1.90846">
        <ele>172</ele>
        <time>2015-05-23T23:32:38Z</time>
      </trkpt>
      <trkpt lat="48.64353" lon="1.90599">
        <ele>173</ele>
        <time>2015-05-23T23:32:18Z</time>
      </trkpt>
      <trkpt lat="48.64366" lon="1.90568">
        <ele>173</ele>
        <time>2015-05-23T23:31:58Z</time>
      </trkpt>
      <trkpt lat="48.63986" lon="1.90137">
        <ele>177</ele>
        <time>2015-05-23T23:31:38Z</time>
      </trkpt>
      <trkpt lat="48.63959" lon="1.90195">
        <ele>176</ele>
        <time>2015-05-23T23:31:18Z</time>
      </trkpt>
      <trkpt lat="48.63522" lon="1.91121">
        <ele>174</ele>
        <time>2015-05-23T23:30:58Z</time>
      </trkpt>
      <trkpt lat="48.6309" lon="1.92052">
        <ele>174</ele>
        <time>2015-05-23T23:30:38Z</time>
      </trkpt>
      <trkpt lat="48.62966" lon="1.9192">
        <ele>175</ele>
        <time>2015-05-23T23:30:18Z</time>
      </trkpt>
      <trkpt lat="48.62769" lon="1.9171">
        <ele>178</ele>
        <time>2015-05-23T23:29:58Z</time>
      </trkpt>
      <trkpt lat="48.62436" lon="1.9242">
        <ele>177</ele>
        <time>2015-05-23T23:29:38Z</time>
      </trkpt>
      <trkpt lat="48.62267" lon="1.92782">
        <ele>177</ele>
        <time>2015-05-23T23:29:18Z</time>
      </trkpt>
      <trkpt lat="48.62102" lon="1.93143">
        <ele>176</ele>
        <time>2015-05-23T23:28:58Z</time>
      </trkpt>
      <trkpt lat="48.61751" lon="1.93888">
        <ele>166</ele>
        <time>2015-05-23T23:28:38Z</time>
      </trkpt>
      <trkpt lat="48.61636" lon="1.94133">
        <ele>169</ele>
        <time>2015-05-23T23:28:18Z</time>
      </trkpt>
      <trkpt lat="48.61407" lon="1.94615">
        <ele>151</ele>
        <time>2015-05-23T23:27:58Z</time>
      </trkpt>
      <trkpt lat="48.61324" lon="1.94795">
        <ele>141</ele>
        <time>2015-05-23T23:27:38Z</time>
      </trkpt>
      <trkpt lat="48.61324" lon="1.9489">
        <ele>139</ele>
        <time>2015-05-23T23:27:18Z</time>
      </trkpt>
      <trkpt lat="48.61292" lon="1.95122">
        <ele>136</ele>
        <time>2015-05-23T23:26:58Z</time>
      </trkpt>
      <trkpt lat="48.61277" lon="1.95193">
        <ele>134</ele>
        <time>2015-05-23T23:26:38Z</time>
      </trkpt>
      <trkpt lat="48.61268" lon="1.95264">
        <ele>132</ele>
        <time>2015-05-23T23:26:18Z</time>
      </trkpt>
      <trkpt lat="48.61268" lon="1.95356">
        <ele>132</ele>
        <time>2015-05-23T23:25:58Z</time>
      </trkpt>
      <trkpt lat="48.61259" lon="1.95443">
        <ele>130</ele>
        <time>2015-05-23T23:25:38Z</time>
      </trkpt>
      <trkpt lat="48.61237" lon="1.95536">
        <ele>127</ele>
        <time>2015-05-23T23:25:18Z</time>
      </trkpt>
      <trkpt lat="48.61223" lon="1.95646">
        <ele>127</ele>
        <time>2015-05-23T23:24:58Z</time>
      </trkpt>
      <trkpt lat="48.61217" lon="1.95742">
        <ele>125</ele>
        <time>2015-05-23T23:24:38Z</time>
      </trkpt>
      <trkpt lat="48.61207" lon="1.95809">
        <ele>124</ele>
        <time>2015-05-23T23:24:18Z</time>
      </trkpt>
      <trkpt lat="48.61207" lon="1.95839">
        <ele>123</ele>
        <time>2015-05-23T23:23:58Z</time>
      </trkpt>
      <trkpt lat="48.61212" lon="1.95881">
        <ele>123</ele>
        <time>2015-05-23T23:23:38Z</time>
      </trkpt>
      <trkpt lat="48.61223" lon="1.95945">
        <ele>120</ele>
        <time>2015-05-23T23:23:18Z</time>
      </trkpt>
      <trkpt lat="48.61237" lon="1.96007">
        <ele>118</ele>
        <time>2015-05-23T23:22:58Z</time>
      </trkpt>
      <trkpt lat="48.61242" lon="1.96085">
        <ele>116</ele>
        <time>2015-05-23T23:22:38Z</time>
      </trkpt>
      <trkpt lat="48.61236" lon="1.96122">
        <ele>115</ele>
        <time>2015-05-23T23:22:18Z</time>
      </trkpt>
      <trkpt lat="48.61225" lon="1.96154">
        <ele>114</ele>
        <time>2015-05-23T23:21:58Z</time>
      </trkpt>
      <trkpt lat="48.61163" lon="1.96206">
        <ele>113</ele>
        <time>2015-05-23T23:21:38Z</time>
      </trkpt>
      <trkpt lat="48.61146" lon="1.96377">
        <ele>113</ele>
        <time>2015-05-23T23:21:18Z</time>
      </trkpt>
      <trkpt lat="48.61133" lon="1.96474">
        <ele>112</ele>
        <time>2015-05-23T23:20:58Z</time>
      </trkpt>
      <trkpt lat="48.61094" lon="1.96618">
        <ele>111</ele>
        <time>2015-05-23T23:20:38Z</time>
      </trkpt>
      <trkpt lat="48.61051" lon="1.96761">
        <ele>109</ele>
        <time>2015-05-23T23:20:18Z</time>
      </trkpt>
      <trkpt lat="48.60982" lon="1.97011">
        <ele>106</ele>
        <time>2015-05-23T23:19:58Z</time>
      </trkpt>
      <trkpt lat="48.60978" lon="1.97064">
        <ele>106</ele>
        <time>2015-05-23T23:19:38Z</time>
      </trkpt>
      <trkpt lat="48.60986" lon="1.97114">
        <ele>105</ele>
        <time>2015-05-23T23:19:18Z</time>
      </trkpt>
      <trkpt lat="48.6101" lon="1.97182">
        <ele>104</ele>
        <time>2015-05-23T23:18:58Z</time>
      </trkpt>
      <trkpt lat="48.60971" lon="1.97224">
        <ele>105</ele>
        <time>2015-05-23T23:18:38Z</time>
      </trkpt>
      <trkpt lat="48.6091" lon="1.97271">
        <ele>107</ele>
        <time>2015-05-23T23:18:18Z</time>
      </trkpt>
      <trkpt lat="48.60859" lon="1.97355">
        <ele>108</ele>
        <time>2015-05-23T23:17:58Z</time>
      </trkpt>
      <trkpt lat="48.60789" lon="1.97437">
        <ele>109</ele>
        <time>2015-05-23T23:17:38Z</time>
      </trkpt>
      <trkpt lat="48.60769" lon="1.97441">
        <ele>110</ele>
        <time>2015-05-23T23:17:18Z</time>
      </trkpt>
      <trkpt lat="48.60747" lon="1.97456">
        <ele>111</ele>
        <time>2015-05-23T23:16:58Z</time>
      </trkpt>
      <trkpt lat="48.60701" lon="1.97477">
        <ele>111</ele>
        <time>2015-05-23T23:16:38Z</time>
      </trkpt>
      <trkpt lat="48.60666" lon="1.97463">
        <ele>113</ele>
        <time>2015-05-23T23:16:18Z</time>
      </trkpt>
      <trkpt lat="48.60629" lon="1.9741">
        <ele>113</ele>
        <time>2015-05-23T23:15:58Z</time>
      </trkpt>
      <trkpt lat="48.60589" lon="1.97368">
        <ele>114</ele>
        <time>2015-05-23T23:15:38Z</time>
      </trkpt>
      <trkpt lat="48.60558" lon="1.97322">
        <ele>117</ele>
        <time>2015-05-23T23:15:18Z</time>
      </trkpt>
      <trkpt lat="48.60505" lon="1.97282">
        <ele>119</ele>
        <time>2015-05-23T23:14:58Z</time>
      </trkpt>
      <trkpt lat="48.60474" lon="1.97272">
        <ele>120</ele>
        <time>2015-05-23T23:14:38Z</time>
      </trkpt>
      <trkpt lat="48.60449" lon="1.97256">
        <ele>120</ele>
        <time>2015-05-23T23:14:18Z</time>
      </trkpt>
      <trkpt lat="48.60401" lon="1.97209">
        <ele>122</ele>
        <time>2015-05-23T23:13:58Z</time>
      </trkpt>
      <trkpt lat="48.60368" lon="1.97152">
        <ele>125</ele>
        <time>2015-05-23T23:13:38Z</time>
      </trkpt>
      <trkpt lat="48.60313" lon="1.97086">
        <ele>125</ele>
        <time>2015-05-23T23:13:18Z</time>
      </trkpt>
      <trkpt lat="48.60296" lon="1.97008">
        <ele>127</ele>
        <time>2015-05-23T23:12:58Z</time>
      </trkpt>
      <trkpt lat="48.60233" lon="1.96842">
        <ele>130</ele>
        <time>2015-05-23T23:12:38Z</time>
      </trkpt>
      <trkpt lat="48.60197" lon="1.9669">
        <ele>134</ele>
        <time>2015-05-23T23:12:18Z</time>
      </trkpt>
      <trkpt lat="48.60208" lon="1.9659">
        <ele>135</ele>
        <time>2015-05-23T23:11:58Z</time>
      </trkpt>
      <trkpt lat="48.60206" lon="1.96502">
        <ele>137</ele>
        <time>2015-05-23T23:11:38Z</time>
      </trkpt>
      <trkpt lat="48.60205" lon="1.96441">
        <ele>139</ele>
        <time>2015-05-23T23:11:18Z</time>
      </trkpt>
      <trkpt lat="48.60199" lon="1.96394">
        <ele>140</ele>
        <time>2015-05-23T23:10:58Z</time>
      </trkpt>
      <trkpt lat="48.60183" lon="1.96334">
        <ele>140</ele>
        <time>2015-05-23T23:10:38Z</time>
      </trkpt>
      <trkpt lat="48.60183" lon="1.96311">
        <ele>140</ele>
        <time>2015-05-23T23:10:18Z</time>
      </trkpt>
      <trkpt lat="48.60175" lon="1.96289">
        <ele>140</ele>
        <time>2015-05-23T23:09:58Z</time>
      </trkpt>
      <trkpt lat="48.60151" lon="1.96249">
        <ele>140</ele>
        <time>2015-05-23T23:09:38Z</time>
      </trkpt>
      <trkpt lat="48.60145" lon="1.96228">
        <ele>141</ele>
        <time>2015-05-23T23:09:18Z</time>
      </trkpt>
      <trkpt lat="48.60153" lon="1.96179">
        <ele>139</ele>
        <time>2015-05-23T23:08:58Z</time>
      </trkpt>
      <trkpt lat="48.60155" lon="1.96121">
        <ele>139</ele>
        <time>2015-05-23T23:08:38Z</time>
      </trkpt>
      <trkpt lat="48.60141" lon="1.96062">
        <ele>135</ele>
        <time>2015-05-23T23:08:18Z</time>
      </trkpt>
      <trkpt lat="48.60117" lon="1.95906">
        <ele>123</ele>
        <time>2015-05-23T23:07:58Z</time>
      </trkpt>
      <trkpt lat="48.60056" lon="1.95831">
        <ele>125</ele>
        <time>2015-05-23T23:07:38Z</time>
      </trkpt>
      <trkpt lat="48.60025" lon="1.95753">
        <ele>127</ele>
        <time>2015-05-23T23:07:18Z</time>
      </trkpt>
      <trkpt lat="48.59999" lon="1.95697">
        <ele>128</ele>
        <time>2015-05-23T23:06:58Z</time>
      </trkpt>
      <trkpt lat="48.59966" lon="1.95677">
        <ele>128</ele>
        <time>2015-05-23T23:06:38Z</time>
      </trkpt>
      <trkpt lat="48.59918" lon="1.95686">
        <ele>128</ele>
        <time>2015-05-23T23:06:18Z</time>
      </trkpt>
      <trkpt lat="48.59846" lon="1.95687">
        <ele>127</ele>
        <time>2015-05-23T23:05:58Z</time>
      </trkpt>
      <trkpt lat="48.59781" lon="1.95706">
        <ele>126</ele>
        <time>2015-05-23T23:05:38Z</time>
      </trkpt>
      <trkpt lat="48.59685" lon="1.95683">
        <ele>124</ele>
        <time>2015-05-23T23:05:18Z</time>
      </trkpt>
      <trkpt lat="48.59672" lon="1.95661">
        <ele>123</ele>
        <time>2015-05-23T23:04:58Z</time>
      </trkpt>
      <trkpt lat="48.59655" lon="1.95646">
        <ele>122</ele>
        <time>2015-05-23T23:04:38Z</time>
      </trkpt>
      <trkpt lat="48.59622" lon="1.95646">
        <ele>121</ele>
        <time>2015-05-23T23:04:18Z</time>
      </trkpt>
      <trkpt lat="48.59602" lon="1.95651">
        <ele>121</ele>
        <time>2015-05-23T23:03:58Z</time>
      </trkpt>
      <trkpt lat="48.59583" lon="1.95651">
        <ele>120</ele>
        <time>2015-05-23T23:03:38Z</time>
      </trkpt>
      <trkpt lat="48.59522" lon="1.95603">
        <ele>120</ele>
        <time>2015-05-23T23:03:18Z</time>
      </trkpt>
      <trkpt lat="48.59421" lon="1.95495">
        <ele>125</ele>
        <time>2015-05-23T23:02:58Z</time>
      </trkpt>
      <trkpt lat="48.59319" lon="1.95394">
        <ele>127</ele>
        <time>2015-05-23T23:02:38Z</time>
      </trkpt>
      <trkpt lat="48.59272" lon="1.95352">
        <ele>129</ele>
        <time>2015-05-23T23:02:18Z</time>
      </trkpt>
      <trkpt lat="48.59186" lon="1.95265">
        <ele>130</ele>
        <time>2015-05-23T23:01:58Z</time>
      </trkpt>
      <trkpt lat="48.59047" lon="1.95124">
        <ele>132</ele>
        <time>2015-05-23T23:01:38Z</time>
      </trkpt>
      <trkpt lat="48.58989" lon="1.95061">
        <ele>135</ele>
        <time>2015-05-23T23:01:18Z</time>
      </trkpt>
      <trkpt lat="48.58949" lon="1.95006">
        <ele>136</ele>
        <time>2015-05-23T23:00:58Z</time>
      </trkpt>
      <trkpt lat="48.58894" lon="1.9494">
        <ele>138</ele>
        <time>2015-05-23T23:00:38Z</time>
      </trkpt>
      <trkpt lat="48.58794" lon="1.94852">
        <ele>145</ele>
        <time>2015-05-23T23:00:18Z</time>
      </trkpt>
      <trkpt lat="48.58771" lon="1.94824">
        <ele>148</ele>
        <time>2015-05-23T22:59:58Z</time>
      </trkpt>
      <trkpt lat="48.58741" lon="1.94808">
        <ele>151</ele>
        <time>2015-05-23T22:59:38Z</time>
      </trkpt>
      <trkpt lat="48.587" lon="1.94764">
        <ele>153</ele>
        <time>2015-05-23T22:59:18Z</time>
      </trkpt>
      <trkpt lat="48.58655" lon="1.94752">
        <ele>155</ele>
        <time>2015-05-23T22:58:58Z</time>
      </trkpt>
      <trkpt lat="48.58581" lon="1.94723">
        <ele>161</ele>
        <time>2015-05-23T22:58:38Z</time>
      </trkpt>
      <trkpt lat="48.58442" lon="1.94642">
        <ele>159</ele>
        <time>2015-05-23T22:58:18Z</time>
      </trkpt>
      <trkpt lat="48.58337" lon="1.94647">
        <ele>153</ele>
        <time>2015-05-23T22:57:58Z</time>
      </trkpt>
      <trkpt lat="48.58216" lon="1.94625">
        <ele>137</ele>
        <time>2015-05-23T22:57:38Z</time>
      </trkpt>
      <trkpt lat="48.5813" lon="1.94594">
        <ele>131</ele>
        <time>2015-05-23T22:57:18Z</time>
      </trkpt>
      <trkpt lat="48.58085" lon="1.94971">
        <ele>134</ele>
        <time>2015-05-23T22:56:58Z</time>
      </trkpt>
      <trkpt lat="48.57872" lon="1.94948">
        <ele>128</ele>
        <time>2015-05-23T22:56:38Z</time>
      </trkpt>
      <trkpt lat="48.57853" lon="1.94929">
        <ele>128</ele>
        <time>2015-05-23T22:56:18Z</time>
      </trkpt>
      <trkpt lat="48.57786" lon="1.94838">
        <ele>125</ele>
        <time>2015-05-23T22:55:58Z</time>
      </trkpt>
      <trkpt lat="48.57779" lon="1.94798">
        <ele>125</ele>
        <time>2015-05-23T22:55:38Z</time>
      </trkpt>
      <trkpt lat="48.57748" lon="1.94685">
        <ele>129</ele>
        <time>2015-05-23T22:55:18Z</time>
      </trkpt>
      <trkpt lat="48.57712" lon="1.94572">
        <ele>131</ele>
        <time>2015-05-23T22:54:58Z</time>
      </trkpt>
      <trkpt lat="48.57682" lon="1.945">
        <ele>131</ele>
        <time>2015-05-23T22:54:38Z</time>
      </trkpt>
      <trkpt lat="48.57634" lon="1.94372">
        <ele>134</ele>
        <time>2015-05-23T22:54:18Z</time>
      </trkpt>
      <trkpt lat="48.57595" lon="1.94287">
        <ele>135</ele>
        <time>2015-05-23T22:53:58Z</time>
      </trkpt>
      <trkpt lat="48.57545" lon="1.94197">
        <ele>132</ele>
        <time>2015-05-23T22:53:38Z</time>
      </trkpt>
      <trkpt lat="48.57502" lon="1.94106">
        <ele>131</ele>
        <time>2015-05-23T22:53:18Z</time>
      </trkpt>
      <trkpt lat="48.57437" lon="1.9395">
        <ele>132</ele>
        <time>2015-05-23T22:52:58Z</time>
      </trkpt>
      <trkpt lat="48.57431" lon="1.93918">
        <ele>133</ele>
        <time>2015-05-23T22:52:38Z</time>
      </trkpt>
      <trkpt lat="48.57392" lon="1.93959">
        <ele>131</ele>
        <time>2015-05-23T22:52:18Z</time>
      </trkpt>
      <trkpt lat="48.5736" lon="1.93938">
        <ele>131</ele>
        <time>2015-05-23T22:51:58Z</time>
      </trkpt>
      <trkpt lat="48.57351" lon="1.93912">
        <ele>132</ele>
        <time>2015-05-23T22:51:38Z</time>
      </trkpt>
      <trkpt lat="48.57264" lon="1.93953">
        <ele>130</ele>
        <time>2015-05-23T22:51:18Z</time>
      </trkpt>
      <trkpt lat="48.57198" lon="1.93974">
        <ele>128</ele>
        <time>2015-05-23T22:50:58Z</time>
      </trkpt>
      <trkpt lat="48.57203" lon="1.93986">
        <ele>128</ele>
        <time>2015-05-23T22:50:38Z</time>
      </trkpt>
      <trkpt lat="48.57178" lon="1.94003">
        <ele>127</ele>
        <time>2015-05-23T22:50:18Z</time>
      </trkpt>
      <trkpt lat="48.57195" lon="1.94066">
        <ele>127</ele>
        <time>2015-05-23T22:49:58Z</time>
      </trkpt>
      <trkpt lat="48.57179" lon="1.94096">
        <ele>126</ele>
        <time>2015-05-23T22:49:38Z</time>
      </trkpt>
      <trkpt lat="48.57158" lon="1.94116">
        <ele>122</ele>
        <time>2015-05-23T22:49:18Z</time>
      </trkpt>
      <trkpt lat="48.57146" lon="1.94122">
        <ele>122</ele>
        <time>2015-05-23T22:48:58Z</time>
      </trkpt>
      <trkpt lat="48.57132" lon="1.94118">
        <ele>121</ele>
        <time>2015-05-23T22:48:38Z</time>
      </trkpt>
      <trkpt lat="48.57125" lon="1.94141">
        <ele>120</ele>
        <time>2015-05-23T22:48:18Z</time>
      </trkpt>
      <trkpt lat="48.57108" lon="1.94128">
        <ele>120</ele>
        <time>2015-05-23T22:47:58Z</time>
      </trkpt>
      <trkpt lat="48.57091" lon="1.94127">
        <ele>119</ele>
        <time>2015-05-23T22:47:38Z</time>
      </trkpt>
      <trkpt lat="48.5703" lon="1.94153">
        <ele>115</ele>
        <time>2015-05-23T22:47:18Z</time>
      </trkpt>
      <trkpt lat="48.56959" lon="1.94155">
        <ele>117</ele>
        <time>2015-05-23T22:46:58Z</time>
      </trkpt>
      <trkpt lat="48.56946" lon="1.94161">
        <ele>118</ele>
        <time>2015-05-23T22:46:38Z</time>
      </trkpt>
      <trkpt lat="48.56927" lon="1.94155">
        <ele>119</ele>
        <time>2015-05-23T22:46:18Z</time>
      </trkpt>
      <trkpt lat="48.56865" lon="1.94196">
        <ele>128</ele>
        <time>2015-05-23T22:45:58Z</time>
      </trkpt>
      <trkpt lat="48.56782" lon="1.94214">
        <ele>140</ele>
        <time>2015-05-23T22:45:38Z</time>
      </trkpt>
      <trkpt lat="48.56727" lon="1.94245">
        <ele>147</ele>
        <time>2015-05-23T22:45:18Z</time>
      </trkpt>
      <trkpt lat="48.56664" lon="1.94273">
        <ele>152</ele>
        <time>2015-05-23T22:44:58Z</time>
      </trkpt>
      <trkpt lat="48.56544" lon="1.94324">
        <ele>153</ele>
        <time>2015-05-23T22:44:38Z</time>
      </trkpt>
      <trkpt lat="48.56462" lon="1.94381">
        <ele>150</ele>
        <time>2015-05-23T22:44:18Z</time>
      </trkpt>
      <trkpt lat="48.56411" lon="1.94452">
        <ele>150</ele>
        <time>2015-05-23T22:43:58Z</time>
      </trkpt>
      <trkpt lat="48.56384" lon="1.94467">
        <ele>151</ele>
        <time>2015-05-23T22:43:38Z</time>
      </trkpt>
      <trkpt lat="48.56264" lon="1.94476">
        <ele>153</ele>
        <time>2015-05-23T22:43:18Z</time>
      </trkpt>
      <trkpt lat="48.5612" lon="1.9447">
        <ele>149</ele>
        <time>2015-05-23T22:42:58Z</time>
      </trkpt>
      <trkpt lat="48.55874" lon="1.95143">
        <ele>170</ele>
        <time>2015-05-23T22:42:38Z</time>
      </trkpt>
      <trkpt lat="48.55931" lon="1.9519">
        <ele>168</ele>
        <time>2015-05-23T22:42:18Z</time>
      </trkpt>
      <trkpt lat="48.55937" lon="1.95206">
        <ele>168</ele>
        <time>2015-05-23T22:41:58Z</time>
      </trkpt>
      <trkpt lat="48.55948" lon="1.95308">
        <ele>170</ele>
        <time>2015-05-23T22:41:38Z</time>
      </trkpt>
      <trkpt lat="48.55949" lon="1.95405">
        <ele>171</ele>
        <time>2015-05-23T22:41:18Z</time>
      </trkpt>
      <trkpt lat="48.55955" lon="1.95441">
        <ele>170</ele>
        <time>2015-05-23T22:40:58Z</time>
      </trkpt>
      <trkpt lat="48.5598" lon="1.95533">
        <ele>169</ele>
        <time>2015-05-23T22:40:38Z</time>
      </trkpt>
      <trkpt lat="48.55981" lon="1.95601">
        <ele>167</ele>
        <time>2015-05-23T22:40:18Z</time>
      </trkpt>
      <trkpt lat="48.55985" lon="1.95673">
        <ele>166</ele>
        <time>2015-05-23T22:39:58Z</time>
      </trkpt>
      <trkpt lat="48.55986" lon="1.95752">
        <ele>166</ele>
        <time>2015-05-23T22:39:38Z</time>
      </trkpt>
      <trkpt lat="48.56" lon="1.95854">
        <ele>165</ele>
        <time>2015-05-23T22:39:18Z</time>
      </trkpt>
      <trkpt lat="48.56009" lon="1.95942">
        <ele>165</ele>
        <time>2015-05-23T22:38:58Z</time>
      </trkpt>
      <trkpt lat="48.55993" lon="1.95973">
        <ele>166</ele>
        <time>2015-05-23T22:38:38Z</time>
      </trkpt>
      <trkpt lat="48.55894" lon="1.9606">
        <ele>165</ele>
        <time>2015-05-23T22:38:18Z</time>
      </trkpt>
      <trkpt lat="48.55661" lon="1.96282">
        <ele>169</ele>
        <time>2015-05-23T22:37:58Z</time>
      </trkpt>
      <trkpt lat="48.55631" lon="1.96275">
        <ele>170</ele>
        <time>2015-05-23T22:37:38Z</time>
      </trkpt>
      <trkpt lat="48.5562" lon="1.96279">
        <ele>170</ele>
        <time>2015-05-23T22:37:18Z</time>
      </trkpt>
      <trkpt lat="48.5561" lon="1.96295">
        <ele>170</ele>
        <time>2015-05-23T22:36:58Z</time>
      </trkpt>
      <trkpt lat="48.55597" lon="1.96345">
        <ele>170</ele>
        <time>2015-05-23T22:36:38Z</time>
      </trkpt>
      <trkpt lat="48.55118" lon="1.96794">
        <ele>164</ele>
        <time>2015-05-23T22:36:18Z</time>
      </trkpt>
      <trkpt lat="48.55033" lon="1.96873">
        <ele>164</ele>
        <time>2015-05-23T22:35:58Z</time>
      </trkpt>
      <trkpt lat="48.54709" lon="1.97175">
        <ele>166</ele>
        <time>2015-05-23T22:35:38Z</time>
      </trkpt>
      <trkpt lat="48.54523" lon="1.97707">
        <ele>169</ele>
        <time>2015-05-23T22:35:18Z</time>
      </trkpt>
      <trkpt lat="48.54343" lon="1.98227">
        <ele>167</ele>
        <time>2015-05-23T22:34:58Z</time>
      </trkpt>
      <trkpt lat="48.54329" lon="1.98503">
        <ele>167</ele>
        <time>2015-05-23T22:34:38Z</time>
      </trkpt>
      <trkpt lat="48.54333" lon="1.98601">
        <ele>166</ele>
        <time>2015-05-23T22:34:18Z</time>
      </trkpt>
      <trkpt lat="48.54331" lon="1.98656">
        <ele>165</ele>
        <time>2015-05-23T22:33:58Z</time>
      </trkpt>
      <trkpt lat="48.54312" lon="1.98746">
        <ele>165</ele>
        <time>2015-05-23T22:33:38Z</time>
      </trkpt>
      <trkpt lat="48.54298" lon="1.9876">
        <ele>165</ele>
        <time>2015-05-23T22:33:18Z</time>
      </trkpt>
      <trkpt lat="48.5428" lon="1.98787">
        <ele>164</ele>
        <time>2015-05-23T22:32:58Z</time>
      </trkpt>
      <trkpt lat="48.54275" lon="1.98808">
        <ele>164</ele>
        <time>2015-05-23T22:32:38Z</time>
      </trkpt>
      <trkpt lat="48.54261" lon="1.98834">
        <ele>164</ele>
        <time>2015-05-23T22:32:18Z</time>
      </trkpt>
      <trkpt lat="48.54207" lon="1.98915">
        <ele>158</ele>
        <time>2015-05-23T22:31:58Z</time>
      </trkpt>
      <trkpt lat="48.54153" lon="1.98952">
        <ele>152</ele>
        <time>2015-05-23T22:31:38Z</time>
      </trkpt>
      <trkpt lat="48.54112" lon="1.9899">
        <ele>151</ele>
        <time>2015-05-23T22:31:18Z</time>
      </trkpt>
      <trkpt lat="48.54098" lon="1.98993">
        <ele>150</ele>
        <time>2015-05-23T22:30:58Z</time>
      </trkpt>
      <trkpt lat="48.54081" lon="1.99014">
        <ele>146</ele>
        <time>2015-05-23T22:30:38Z</time>
      </trkpt>
      <trkpt lat="48.54074" lon="1.99043">
        <ele>144</ele>
        <time>2015-05-23T22:30:18Z</time>
      </trkpt>
      <trkpt lat="48.54016" lon="1.99122">
        <ele>144</ele>
        <time>2015-05-23T22:29:58Z</time>
      </trkpt>
      <trkpt lat="48.53976" lon="1.99154">
        <ele>142</ele>
        <time>2015-05-23T22:29:38Z</time>
      </trkpt>
      <trkpt lat="48.53955" lon="1.99164">
        <ele>141</ele>
        <time>2015-05-23T22:29:18Z</time>
      </trkpt>
      <trkpt lat="48.53929" lon="1.99183">
        <ele>143</ele>
        <time>2015-05-23T22:28:58Z</time>
      </trkpt>
      <trkpt lat="48.53935" lon="1.99215">
        <ele>145</ele>
        <time>2015-05-23T22:28:38Z</time>
      </trkpt>
      <trkpt lat="48.53947" lon="1.99242">
        <ele>146</ele>
        <time>2015-05-23T22:28:18Z</time>
      </trkpt>
      <trkpt lat="48.53976" lon="1.99277">
        <ele>153</ele>
        <time>2015-05-23T22:27:58Z</time>
      </trkpt>
      <trkpt lat="48.53973" lon="1.9935">
        <ele>157</ele>
        <time>2015-05-23T22:27:38Z</time>
      </trkpt>
      <trkpt lat="48.53982" lon="1.99407">
        <ele>158</ele>
        <time>2015-05-23T22:27:18Z</time>
      </trkpt>
      <trkpt lat="48.5399" lon="1.99429">
        <ele>158</ele>
        <time>2015-05-23T22:26:58Z</time>
      </trkpt>
      <trkpt lat="48.5399" lon="1.99453">
        <ele>156</ele>
        <time>2015-05-23T22:26:38Z</time>
      </trkpt>
      <trkpt lat="48.53993" lon="1.99548">
        <ele>153</ele>
        <time>2015-05-23T22:26:18Z</time>
      </trkpt>
      <trkpt lat="48.53952" lon="1.99567">
        <ele>151</ele>
        <time>2015-05-23T22:25:58Z</time>
      </trkpt>
      <trkpt lat="48.53899" lon="1.99636">
        <ele>143</ele>
        <time>2015-05-23T22:25:38Z</time>
      </trkpt>
      <trkpt lat="48.53816" lon="1.99792">
        <ele>131</ele>
        <time>2015-05-23T22:25:18Z</time>
      </trkpt>
      <trkpt lat="48.53798" lon="1.99845">
        <ele>128</ele>
        <time>2015-05-23T22:24:58Z</time>
      </trkpt>
      <trkpt lat="48.53781" lon="1.99865">
        <ele>127</ele>
        <time>2015-05-23T22:24:38Z</time>
      </trkpt>
      <trkpt lat="48.53755" lon="1.99875">
        <ele>126</ele>
        <time>2015-05-23T22:24:18Z</time>
      </trkpt>
      <trkpt lat="48.5373" lon="1.99896">
        <ele>123</ele>
        <time>2015-05-23T22:23:58Z</time>
      </trkpt>
      <trkpt lat="48.53516" lon="2.00136">
        <ele>113</ele>
        <time>2015-05-23T22:23:38Z</time>
      </trkpt>
      <trkpt lat="48.53503" lon="2.00161">
        <ele>112</ele>
        <time>2015-05-23T22:23:18Z</time>
      </trkpt>
      <trkpt lat="48.53498" lon="2.00178">
        <ele>110</ele>
        <time>2015-05-23T22:22:58Z</time>
      </trkpt>
      <trkpt lat="48.53466" lon="2.00166">
        <ele>109</ele>
        <time>2015-05-23T22:22:38Z</time>
      </trkpt>
      <trkpt lat="48.5346" lon="2.00177">
        <ele>109</ele>
        <time>2015-05-23T22:22:18Z</time>
      </trkpt>
      <trkpt lat="48.53448" lon="2.00173">
        <ele>108</ele>
        <time>2015-05-23T22:21:58Z</time>
      </trkpt>
      <trkpt lat="48.53444" lon="2.0016">
        <ele>108</ele>
        <time>2015-05-23T22:21:38Z</time>
      </trkpt>
      <trkpt lat="48.53312" lon="2.0014">
        <ele>100</ele>
        <time>2015-05-23T22:21:18Z</time>
      </trkpt>
      <trkpt lat="48.53312" lon="2.00159">
        <ele>100</ele>
        <time>2015-05-23T22:20:58Z</time>
      </trkpt>
      <trkpt lat="48.53303" lon="2.00157">
        <ele>100</ele>
        <time>2015-05-23T22:20:38Z</time>
      </trkpt>
      <trkpt lat="48.53299" lon="2.0015">
        <ele>100</ele>
        <time>2015-05-23T22:20:18Z</time>
      </trkpt>
      <trkpt lat="48.53247" lon="2.00146">
        <ele>98</ele>
        <time>2015-05-23T22:19:58Z</time>
      </trkpt>
      <trkpt lat="48.5323" lon="2.0014">
        <ele>98</ele>
        <time>2015-05-23T22:19:38Z</time>
      </trkpt>
      <trkpt lat="48.53218" lon="2.00138">
        <ele>98</ele>
        <time>2015-05-23T22:19:18Z</time>
      </trkpt>
      <trkpt lat="48.53223" lon="2.00144">
        <ele>98</ele>
        <time>2015-05-23T22:18:58Z</time>
      </trkpt>
      <trkpt lat="48.53255" lon="2.00159">
        <ele>98</ele>
        <time>2015-05-23T22:18:38Z</time>
      </trkpt>
      <trkpt lat="48.53262" lon="2.0017">
        <ele>97</ele>
        <time>2015-05-23T22:18:18Z</time>
      </trkpt>
      <trkpt lat="48.53264" lon="2.00258">
        <ele>97</ele>
        <time>2015-05-23T22:17:58Z</time>
      </trkpt>
      <trkpt lat="48.53254" lon="2.0029">
        <ele>98</ele>
        <time>2015-05-23T22:17:38Z</time>
      </trkpt>
      <trkpt lat="48.53255" lon="2.00333">
        <ele>96</ele>
        <time>2015-05-23T22:17:18Z</time>
      </trkpt>
      <trkpt lat="48.5323" lon="2.0044">
        <ele>96</ele>
        <time>2015-05-23T22:16:58Z</time>
      </trkpt>
      <trkpt lat="48.53226" lon="2.0048">
        <ele>96</ele>
        <time>2015-05-23T22:16:38Z</time>
      </trkpt>
      <trkpt lat="48.53215" lon="2.00525">
        <ele>96</ele>
        <time>2015-05-23T22:16:18Z</time>
      </trkpt>
      <trkpt lat="48.53205" lon="2.00573">
        <ele>96</ele>
        <time>2015-05-23T22:15:58Z</time>
      </trkpt>
      <trkpt lat="48.53192" lon="2.00601">
        <ele>97</ele>
        <time>2015-05-23T22:15:38Z</time>
      </trkpt>
      <trkpt lat="48.5314" lon="2.00697">
        <ele>99</ele>
        <time>2015-05-23T22:15:18Z</time>
      </trkpt>
      <trkpt lat="48.53131" lon="2.00697">
        <ele>99</ele>
        <time>2015-05-23T22:14:58Z</time>
      </trkpt>
      <trkpt lat="48.53126" lon="2.00717">
        <ele>100</ele>
        <time>2015-05-23T22:14:38Z</time>
      </trkpt>
      <trkpt lat="48.53137" lon="2.00729">
        <ele>100</ele>
        <time>2015-05-23T22:14:18Z</time>
      </trkpt>
      <trkpt lat="48.53151" lon="2.0076">
        <ele>104</ele>
        <time>2015-05-23T22:13:58Z</time>
      </trkpt>
      <trkpt lat="48.53143" lon="2.00773">
        <ele>105</ele>
        <time>2015-05-23T22:13:38Z</time>
      </trkpt>
      <trkpt lat="48.53166" lon="2.00802">
        <ele>106</ele>
        <time>2015-05-23T22:13:18Z</time>
      </trkpt>
      <trkpt lat="48.53183" lon="2.00759">
        <ele>106</ele>
        <time>2015-05-23T22:12:58Z</time>
      </trkpt>
      <trkpt lat="48.53203" lon="2.00728">
        <ele>103</ele>
        <time>2015-05-23T22:12:38Z</time>
      </trkpt>
      <trkpt lat="48.53272" lon="2.00837">
        <ele>117</ele>
        <time>2015-05-23T22:12:18Z</time>
      </trkpt>
      <trkpt lat="48.53221" lon="2.00911">
        <ele>115</ele>
        <time>2015-05-23T22:11:58Z</time>
      </trkpt>
      <trkpt lat="48.53223" lon="2.00933">
        <ele>115</ele>
        <time>2015-05-23T22:11:38Z</time>
      </trkpt>
      <trkpt lat="48.53334" lon="2.00963">
        <ele>117</ele>
        <time>2015-05-23T22:11:18Z</time>
      </trkpt>
      <trkpt lat="48.53334" lon="2.00963">
        <ele>117</ele>
        <time>2015-05-23T22:11:18Z</time>
      </trkpt>
    </trkseg>
  </trk>
</gpx>